Tropical Cyclones
[Index]
Main Index Home Page Stock Weather Photos Extreme Storms Discussion Storm News and Storm Chasing Reports Tropical Cyclones / Hurricanes / Typhoons Weather Data and Links Wild Fires / Bushfires Weather Observation Techniques Weather Picture Catalogue Tornado Pictures and Reports Stock Video Footage and DVDs for sale
Season 2014-2015 Tropical Cyclone EUNICE Track Map
Season 2014-2015 Summaries: [BoM-AU] [JTWC-AU] [JTWC-SIO] [JTWC-SPAC] [JTWC-SH]
<<- Previous TC | JTWC 2014-2015 Season | Next TC ->>

click for intensity scale information  Lat/long Grid: Show Hide

 Date Labels: Show Hide

Joint Typhoon Warning Centre Cyclone Data

Name: EUNICE

26 Jan 2015 18:00 UTC to 02 Feb 2015 18:00 UTC

    date/time    lat    long     hPa   cat  kts
2015-01-26 18   13.6    63.9    1004         25          
2015-01-27 00   13.4    63.3    1004         25          
2015-01-27 06   13.1    62.9    1000         30          
2015-01-27 09   12.9    62.9    1000         30          
2015-01-27 12   12.8    63.1     996         35          
2015-01-27 18   12.9    63.6     993    1    40          
2015-01-28 00   13.2    64.1     985    1    50          
2015-01-28 06   13.8    64.5     978    2    60          
2015-01-28 06   13.8    64.5     978    2    60          
2015-01-28 12   14.2    64.9     967    3    75          
2015-01-28 12   14.2    64.9     967    3    75          
2015-01-28 12   14.2    64.9     967    3    75          
2015-01-28 18   14.6    65.4     956    3    90          
2015-01-28 18   14.6    65.4     956    3    90          
2015-01-28 18   14.6    65.4     956    3    90          
2015-01-29 00   15.0    65.9     956    3    90          
2015-01-29 00   15.0    65.9     956    3    90          
2015-01-29 00   15.0    65.9     956    3    90          
2015-01-29 06   15.4    66.4     948    4   100          
2015-01-29 06   15.4    66.4     948    4   100          
2015-01-29 06   15.4    66.4     948    4   100          
2015-01-29 12   16.2    66.9     937    4   115          
2015-01-29 12   16.2    66.9     937    4   115          
2015-01-29 12   16.2    66.9     937    4   115          
2015-01-29 18   17.0    67.3     922    5   135          
2015-01-29 18   17.0    67.3     922    5   135          
2015-01-29 18   17.0    67.3     922    5   135          
2015-01-30 00   17.8    67.7     918    5   140          
2015-01-30 00   17.8    67.7     918    5   140          
2015-01-30 00   17.8    67.7     918    5   140          
2015-01-30 06   18.4    68.0     918    5   140          
2015-01-30 06   18.4    68.0     918    5   140          
2015-01-30 06   18.4    68.0     918    5   140          
2015-01-30 12   19.2    68.5     918    5   140          
2015-01-30 12   19.2    68.5     918    5   140          
2015-01-30 12   19.2    68.5     918    5   140          
2015-01-30 18   19.7    69.1     922    5   135          
2015-01-30 18   19.7    69.1     922    5   135          
2015-01-30 18   19.7    69.1     922    5   135          
2015-01-31 00   20.0    70.0     929    5   125          
2015-01-31 00   20.0    70.0     929    5   125          
2015-01-31 00   20.0    70.0     929    5   125          
2015-01-31 06   20.4    71.2     933    4   120          
2015-01-31 06   20.4    71.2     933    4   120          
2015-01-31 06   20.4    71.2     933    4   120          
2015-01-31 12   20.6    72.7     937    4   115          
2015-01-31 12   20.6    72.7     937    4   115          
2015-01-31 12   20.6    72.7     937    4   115          
2015-01-31 18   20.7    74.5     948    4   100          
2015-01-31 18   20.7    74.5     948    4   100          
2015-01-31 18   20.7    74.5     948    4   100          
2015-02-01 00   20.8    76.1     956    3    90          
2015-02-01 00   20.8    76.1     956    3    90          
2015-02-01 00   20.8    76.1     956    3    90          
2015-02-01 06   21.1    78.4     963    3    80          
2015-02-01 06   21.1    78.4     963    3    80          
2015-02-01 06   21.1    78.4     963    3    80          
2015-02-01 12   21.4    80.5     970    2    70          
2015-02-01 12   21.4    80.5     970    2    70          
2015-02-01 12   21.4    80.5     970    2    70          
2015-02-01 18   22.0    82.5     974    2    65          
2015-02-01 18   22.0    82.5     974    2    65          
2015-02-01 18   22.0    82.5     974    2    65          
2015-02-02 00   23.4    85.5     978    2    60          
2015-02-02 00   23.4    85.5     978    2    60          
2015-02-02 06   26.0    88.7     982    2    55          
2015-02-02 06   26.0    88.7     982    2    55          
2015-02-02 12   29.2    91.7     985    1    50          
2015-02-02 12   29.2    91.7     985    1    50          
2015-02-02 18   32.5    93.4     985    1    50          
Winds are 1-min average.

Tropical cyclone tracks developed by Michael Bath using data from the Joint Typhoon Warning Centre Best Tracks and Google Maps.


[Australian Severe Weather index] [Copyright Notice] [Email Contacts] [Search This Site] [Privacy Policy]
Document: tropical_cyclone_eunice.htm Updated: 28 June 2017